Time;durP1;ratioP1;P1;durP2;ratioP2;P2;SDS_P1;SDS_P2;PMS_P1;PMS_P2;Temp;Humidity;BMP_temperature;BMP_pressure;BME280_temperature;BME280_humidity;BME280_pressure;Samples;Min_cycle;Max_cycle;Signal;HPM_P1;HPM_P2
2022/08/28 00:00:23;;;;;;;4.25;2.90;;;31.20;99.90;;;;;;5024010;22;20050;-49
2022/08/28 00:02:49;;;;;;;3.35;3.05;;;31.20;99.90;;;;;;5013190;28;20033;-48
2022/08/28 00:05:17;;;;;;;3.30;3.00;;;31.20;99.90;;;;;;5011848;28;20096;-48
2022/08/28 00:07:44;;;;;;;4.25;3.33;;;31.20;99.90;;;;;;5012967;28;20021;-49
2022/08/28 00:10:11;;;;;;;3.75;2.70;;;31.20;99.90;;;;;;5013015;28;20022;-49
2022/08/28 00:12:38;;;;;;;4.88;3.25;;;31.20;99.90;;;;;;5012776;28;20068;-49
2022/08/28 00:15:07;;;;;;;5.63;3.55;;;31.20;99.90;;;;;;5012698;28;20029;-48
2022/08/28 00:17:33;;;;;;;3.33;2.90;;;31.20;99.90;;;;;;5012706;28;20026;-49
2022/08/28 00:19:59;;;;;;;4.05;2.90;;;31.20;99.90;;;;;;5012685;28;20030;-49
2022/08/28 00:22:25;;;;;;;3.90;3.15;;;31.20;99.90;;;;;;5012994;28;20049;-49
2022/08/28 00:24:50;;;;;;;3.45;3.15;;;31.10;99.90;;;;;;5012651;28;20382;-49
2022/08/28 00:30:00;;;;;;;3.30;2.92;;;31.10;99.90;;;;;;5012801;28;20056;-49
2022/08/28 00:32:27;;;;;;;3.78;2.85;;;31.10;99.90;;;;;;5012635;28;20470;-49
2022/08/28 00:34:53;;;;;;;3.93;2.67;;;31.10;99.90;;;;;;5012688;28;20033;-48
2022/08/28 00:37:19;;;;;;;3.70;3.28;;;31.10;99.90;;;;;;5012306;28;20028;-48
2022/08/28 00:39:45;;;;;;;3.90;2.78;;;31.10;99.90;;;;;;5012294;28;20128;-48
2022/08/28 00:42:11;;;;;;;4.05;2.83;;;31.10;99.90;;;;;;5011320;28;20084;-49
2022/08/28 00:44:37;;;;;;;3.30;2.72;;;31.10;99.90;;;;;;5012414;28;20025;-49
2022/08/28 00:47:03;;;;;;;3.85;3.35;;;31.10;99.90;;;;;;5010945;28;20050;-49
2022/08/28 00:49:34;;;;;;;4.32;3.50;;;31.10;99.90;;;;;;5012050;28;20029;-48
2022/08/28 00:52:04;;;;;;;3.78;2.80;;;31.10;99.90;;;;;;5012437;28;20430;-49
2022/08/28 00:54:33;;;;;;;3.30;2.97;;;31.10;99.90;;;;;;5012143;28;20018;-49
2022/08/28 00:57:02;;;;;;;3.97;2.60;;;31.10;99.90;;;;;;5012234;28;20105;-49
2022/08/28 00:59:28;;;;;;;4.05;3.05;;;31.10;99.90;;;;;;5013460;28;20033;-48
2022/08/28 01:01:56;;;;;;;3.37;2.87;;;31.10;99.90;;;;;;5031889;28;20033;-50
2022/08/28 01:04:25;;;;;;;4.03;2.80;;;31.10;99.90;;;;;;5031670;28;20477;-50
2022/08/28 01:06:54;;;;;;;3.25;2.60;;;31.00;99.90;;;;;;5031908;28;20029;-51
2022/08/28 01:09:22;;;;;;;4.72;3.40;;;31.00;99.90;;;;;;5031603;28;20025;-51
2022/08/28 01:11:50;;;;;;;3.95;2.97;;;31.00;99.90;;;;;;5031524;28;20392;-51
2022/08/28 01:14:21;;;;;;;3.45;2.92;;;31.00;99.90;;;;;;5031606;28;20025;-50
2022/08/28 01:16:51;;;;;;;3.13;2.80;;;31.00;99.90;;;;;;5031626;28;20057;-50
2022/08/28 01:19:25;;;;;;;3.65;2.53;;;31.00;99.90;;;;;;5031468;28;20461;-50
2022/08/28 01:22:12;;;;;;;3.42;2.83;;;31.00;99.90;;;;;;5031254;28;20052;-51
2022/08/28 01:24:39;;;;;;;3.78;2.60;;;31.00;99.90;;;;;;5031357;28;20014;-51
2022/08/28 01:27:05;;;;;;;3.30;2.45;;;31.00;99.90;;;;;;5031348;28;20061;-50
2022/08/28 01:29:31;;;;;;;3.13;2.83;;;31.00;99.90;;;;;;5031391;28;20477;-51
2022/08/28 01:31:58;;;;;;;3.50;2.72;;;31.00;99.90;;;;;;5031434;28;20022;-51
2022/08/28 01:34:24;;;;;;;3.65;2.83;;;31.00;99.90;;;;;;5031267;28;20037;-50
2022/08/28 01:36:50;;;;;;;4.65;3.47;;;31.00;99.90;;;;;;5031485;28;20533;-50
2022/08/28 01:39:21;;;;;;;4.65;3.50;;;30.90;99.90;;;;;;5031110;28;20124;-50
2022/08/28 01:41:53;;;;;;;2.95;2.67;;;31.00;99.90;;;;;;5031023;28;20056;-50
2022/08/28 01:44:23;;;;;;;3.05;2.50;;;30.90;99.90;;;;;;5030601;28;20029;-51
2022/08/28 01:46:51;;;;;;;3.15;2.80;;;30.90;99.90;;;;;;5031173;28;20539;-51
2022/08/28 01:49:18;;;;;;;3.72;3.20;;;30.90;99.90;;;;;;5031201;28;20089;-50
2022/08/28 01:51:44;;;;;;;3.50;2.90;;;30.90;99.90;;;;;;5013441;28;20060;-51
2022/08/28 01:54:11;;;;;;;3.85;2.88;;;30.90;99.90;;;;;;5031266;28;20021;-50
2022/08/28 01:56:37;;;;;;;3.55;2.70;;;30.90;99.90;;;;;;5031072;28;20029;-50
2022/08/28 01:59:06;;;;;;;4.05;2.60;;;30.90;99.90;;;;;;5030806;28;20025;-50
2022/08/28 02:01:32;;;;;;;3.85;2.92;;;30.90;99.90;;;;;;5031625;28;20458;-50
2022/08/28 02:03:59;;;;;;;3.17;2.88;;;30.80;99.90;;;;;;5031178;28;20108;-50
2022/08/28 02:06:25;;;;;;;2.83;2.60;;;30.80;99.90;;;;;;5030909;28;20108;-50
2022/08/28 02:08:54;;;;;;;5.13;2.97;;;30.90;99.90;;;;;;5030975;28;20064;-50
2022/08/28 02:11:23;;;;;;;3.55;2.70;;;30.80;99.90;;;;;;5030950;28;20387;-51
2022/08/28 02:13:49;;;;;;;3.38;2.85;;;30.80;99.90;;;;;;5030807;28;20029;-49
2022/08/28 02:16:16;;;;;;;3.95;2.80;;;30.80;99.90;;;;;;5030976;28;20116;-49
2022/08/28 02:18:41;;;;;;;3.63;2.95;;;30.80;99.90;;;;;;5030879;28;20112;-49
2022/08/28 02:21:08;;;;;;;5.93;3.08;;;30.80;99.90;;;;;;5030944;28;20160;-50
2022/08/28 02:23:36;;;;;;;4.20;2.80;;;30.80;99.90;;;;;;5030951;28;20429;-50
2022/08/28 02:26:02;;;;;;;5.75;3.03;;;30.80;99.90;;;;;;5031062;28;20030;-50
2022/08/28 02:28:28;;;;;;;4.05;3.08;;;30.80;99.90;;;;;;5030879;28;20029;-50
2022/08/28 02:30:54;;;;;;;3.38;2.67;;;30.80;99.90;;;;;;5030872;28;20021;-50
2022/08/28 02:33:20;;;;;;;3.00;2.58;;;30.80;99.90;;;;;;5030753;28;20030;-50
2022/08/28 02:35:46;;;;;;;3.28;2.53;;;30.80;99.90;;;;;;5030737;28;20029;-50
2022/08/28 02:38:12;;;;;;;3.75;2.75;;;30.80;99.90;;;;;;5030696;28;20029;-50
2022/08/28 02:40:38;;;;;;;2.85;2.60;;;30.80;99.90;;;;;;5030595;28;20079;-50
2022/08/28 02:43:05;;;;;;;4.15;2.45;;;30.80;99.90;;;;;;5030735;28;20041;-50
2022/08/28 02:45:31;;;;;;;3.03;2.58;;;30.80;99.90;;;;;;5030906;28;20024;-50
2022/08/28 02:47:57;;;;;;;3.65;2.58;;;30.80;99.90;;;;;;5030723;28;20025;-51
2022/08/28 02:50:23;;;;;;;5.15;3.35;;;30.80;99.90;;;;;;5030661;28;20029;-51
2022/08/28 02:52:50;;;;;;;3.35;2.70;;;30.70;99.90;;;;;;5030640;28;20026;-49
2022/08/28 02:55:18;;;;;;;4.13;3.28;;;30.70;99.90;;;;;;5030858;28;20026;-50
2022/08/28 02:57:45;;;;;;;3.80;2.83;;;30.70;99.90;;;;;;5016655;28;20033;-50
2022/08/28 03:00:15;;;;;;;3.90;2.88;;;30.70;99.90;;;;;;5034453;28;20100;-50
2022/08/28 03:02:44;;;;;;;3.65;2.45;;;30.70;99.90;;;;;;5034052;28;20037;-50
2022/08/28 03:05:11;;;;;;;5.00;3.33;;;30.70;99.90;;;;;;5034073;28;20014;-50
2022/08/28 03:07:37;;;;;;;3.42;3.05;;;30.70;99.90;;;;;;5034109;28;20033;-51
2022/08/28 03:10:05;;;;;;;5.40;3.17;;;30.70;99.90;;;;;;5034245;28;20033;-50
2022/08/28 03:12:32;;;;;;;3.30;2.70;;;30.70;99.90;;;;;;5033984;28;20481;-50
2022/08/28 03:14:57;;;;;;;3.28;2.60;;;30.70;99.90;;;;;;5033836;28;20551;-50
2022/08/28 03:17:23;;;;;;;2.60;2.40;;;30.70;99.90;;;;;;5016001;28;20033;-50
2022/08/28 03:19:49;;;;;;;4.68;3.00;;;30.70;99.90;;;;;;5033681;28;20112;-50
2022/08/28 03:22:16;;;;;;;3.25;2.70;;;30.70;99.90;;;;;;5033780;28;20049;-50
2022/08/28 03:24:43;;;;;;;3.13;2.45;;;30.70;99.90;;;;;;5033647;28;20067;-51
2022/08/28 03:27:10;;;;;;;3.60;2.70;;;30.70;99.90;;;;;;5033795;28;20025;-50
2022/08/28 03:29:35;;;;;;;2.95;2.67;;;30.70;99.90;;;;;;5033762;28;20022;-50
2022/08/28 03:32:02;;;;;;;3.40;2.45;;;30.60;99.90;;;;;;5033547;28;20036;-50
2022/08/28 03:34:28;;;;;;;3.67;2.80;;;30.60;99.90;;;;;;5033528;28;20485;-50
2022/08/28 03:36:53;;;;;;;5.68;3.75;;;30.60;99.90;;;;;;5033318;28;20034;-50
2022/08/28 03:39:19;;;;;;;2.88;2.33;;;30.60;99.90;;;;;;5033431;28;20030;-50
2022/08/28 03:41:45;;;;;;;4.38;2.63;;;30.60;99.90;;;;;;5033143;28;20037;-50
2022/08/28 03:44:11;;;;;;;4.57;2.80;;;30.60;99.90;;;;;;5033236;28;20122;-50
2022/08/28 03:46:38;;;;;;;4.32;2.83;;;30.60;99.90;;;;;;5033460;28;20033;-50
2022/08/28 03:49:04;;;;;;;4.03;2.80;;;30.60;99.90;;;;;;5033151;28;20036;-50
2022/08/28 03:51:32;;;;;;;3.15;2.53;;;30.60;99.90;;;;;;5033248;28;20096;-50
2022/08/28 03:53:59;;;;;;;2.70;2.50;;;30.60;99.90;;;;;;5015387;28;20033;-49
2022/08/28 03:56:26;;;;;;;3.95;2.92;;;30.60;99.90;;;;;;5032987;28;20056;-49
2022/08/28 03:58:53;;;;;;;;;;;30.60;99.90;;;;;;5033726;28;20033;-49
2022/08/28 04:01:20;;;;;;;3.20;2.50;;;30.60;99.90;;;;;;5033672;28;19921;-49
2022/08/28 04:03:46;;;;;;;2.45;2.00;;;30.60;99.90;;;;;;5032902;28;20037;-50
2022/08/28 04:06:13;;;;;;;2.97;2.67;;;30.60;99.90;;;;;;5032477;28;20059;-50
2022/08/28 04:08:39;;;;;;;3.50;2.90;;;30.60;99.90;;;;;;5032870;28;20028;-49
2022/08/28 04:11:05;;;;;;;4.85;3.00;;;30.60;99.90;;;;;;5032630;28;20026;-49
2022/08/28 04:13:31;;;;;;;3.38;2.95;;;30.60;99.90;;;;;;5032611;28;20048;-50
2022/08/28 04:16:01;;;;;;;3.00;2.70;;;30.60;99.90;;;;;;5032472;28;20034;-50
2022/08/28 04:18:29;;;;;;;3.65;2.83;;;30.60;99.90;;;;;;5032699;28;20080;-50
2022/08/28 04:21:04;;;;;;;3.58;2.30;;;30.60;99.90;;;;;;5032316;28;20109;-50
2022/08/28 04:23:30;;;;;;;4.88;3.03;;;30.50;99.90;;;;;;5032440;28;20029;-50
2022/08/28 04:25:56;;;;;;;3.30;2.30;;;30.50;99.90;;;;;;5032478;28;20379;-50
2022/08/28 04:28:23;;;;;;;4.13;3.22;;;30.50;99.90;;;;;;5032242;28;20042;-50
2022/08/28 04:30:53;;;;;;;3.58;3.10;;;30.50;99.90;;;;;;5032270;28;20473;-50
2022/08/28 04:33:20;;;;;;;3.03;2.53;;;30.50;99.90;;;;;;5032249;28;20521;-50
2022/08/28 04:35:46;;;;;;;3.72;2.20;;;30.50;99.90;;;;;;5032539;28;20082;-50
2022/08/28 04:38:12;;;;;;;3.40;2.47;;;30.50;99.90;;;;;;5032497;28;20108;-50
2022/08/28 04:40:39;;;;;;;3.67;2.67;;;30.50;99.90;;;;;;5032239;28;20124;-49
2022/08/28 04:43:06;;;;;;;2.92;2.20;;;30.50;99.90;;;;;;5032145;28;20017;-49
2022/08/28 04:45:32;;;;;;;2.92;2.53;;;30.50;99.90;;;;;;5032128;28;20371;-50
2022/08/28 04:47:58;;;;;;;3.13;2.20;;;30.50;99.90;;;;;;5032072;28;20025;-51
2022/08/28 04:50:24;;;;;;;2.97;2.65;;;30.50;99.90;;;;;;5031921;28;20021;-50
2022/08/28 04:52:51;;;;;;;3.67;2.42;;;30.50;99.90;;;;;;5031934;28;20035;-50
2022/08/28 04:55:17;;;;;;;3.35;2.70;;;30.50;99.90;;;;;;5032024;28;20108;-51
2022/08/28 04:57:42;;;;;;;3.67;2.70;;;30.50;99.90;;;;;;5031923;28;20577;-50
2022/08/28 05:00:10;;;;;;;3.38;2.42;;;30.50;99.90;;;;;;5031750;28;20063;-50
2022/08/28 05:02:36;;;;;;;3.30;2.53;;;30.50;99.90;;;;;;5031894;28;20021;-50
2022/08/28 05:05:02;;;;;;;4.13;2.75;;;30.50;99.90;;;;;;5031733;28;20025;-50
2022/08/28 05:07:28;;;;;;;2.80;2.15;;;30.50;99.90;;;;;;5014061;28;20096;-50
2022/08/28 05:09:54;;;;;;;3.10;2.60;;;30.50;99.90;;;;;;5031627;28;20045;-50
2022/08/28 05:12:20;;;;;;;4.35;2.42;;;30.50;99.90;;;;;;5031814;28;20669;-50
2022/08/28 05:14:48;;;;;;;3.97;2.63;;;30.50;99.90;;;;;;5031807;28;20025;-49
2022/08/28 05:17:14;;;;;;;;;;;30.50;99.90;;;;;;5032090;28;20033;-50
2022/08/28 05:19:41;;;;;;;2.73;1.80;;;30.50;99.90;;;;;;5030802;28;19905;-50
2022/08/28 05:22:08;;;;;;;5.93;3.15;;;30.50;99.90;;;;;;5031488;28;20072;-50
2022/08/28 05:24:38;;;;;;;2.40;2.17;;;30.40;99.90;;;;;;5031428;28;20036;-49
2022/08/28 05:27:05;;;;;;;2.78;2.47;;;30.40;99.90;;;;;;5031414;28;20029;-49
2022/08/28 05:29:32;;;;;;;3.63;2.72;;;30.50;99.90;;;;;;5031454;28;20478;-49
2022/08/28 05:31:57;;;;;;;5.45;2.70;;;30.40;99.90;;;;;;5031316;28;20037;-49
2022/08/28 05:34:23;;;;;;;5.03;2.20;;;30.40;99.90;;;;;;5031401;28;20033;-49
2022/08/28 05:36:49;;;;;;;3.65;2.85;;;30.40;99.90;;;;;;5031552;28;20510;-50
2022/08/28 05:39:16;;;;;;;7.88;2.60;;;30.40;99.90;;;;;;5031450;28;20030;-49
2022/08/28 05:41:44;;;;;;;4.38;2.83;;;30.40;99.90;;;;;;5031477;28;20037;-50
2022/08/28 05:44:13;;;;;;;3.75;2.67;;;30.40;99.90;;;;;;5031218;28;20381;-50
2022/08/28 05:46:41;;;;;;;3.92;2.40;;;30.40;99.90;;;;;;5031378;28;20024;-49
2022/08/28 05:49:08;;;;;;;4.15;2.80;;;30.40;99.90;;;;;;5013429;28;20413;-47
2022/08/28 05:51:35;;;;;;;2.67;2.30;;;30.40;99.90;;;;;;5031200;28;20036;-50
2022/08/28 05:54:02;;;;;;;4.90;2.63;;;30.40;99.90;;;;;;5031142;28;20041;-48
2022/08/28 05:56:29;;;;;;;;;;;30.40;99.90;;;;;;5031620;28;20478;-49
2022/08/28 05:58:55;;;;;;;3.22;2.30;;;30.40;99.90;;;;;;5031016;28;19912;-48
2022/08/28 06:01:27;;;;;;;3.42;2.25;;;30.40;99.90;;;;;;5030876;28;20408;-48
2022/08/28 06:04:18;;;;;;;3.20;2.60;;;30.40;99.90;;;;;;5031000;28;20482;-48
2022/08/28 06:06:44;;;;;;;2.58;2.38;;;30.40;99.90;;;;;;5021897;28;20048;-48
2022/08/28 06:09:16;;;;;;;3.10;2.58;;;30.40;99.90;;;;;;5030908;28;20100;-48
2022/08/28 06:11:43;;;;;;;3.65;2.50;;;30.40;99.90;;;;;;5031052;28;20354;-48
2022/08/28 06:14:10;;;;;;;3.75;2.70;;;30.30;99.90;;;;;;5030994;28;20469;-48
2022/08/28 06:16:37;;;;;;;;;;;30.40;99.90;;;;;;5031310;28;20029;-48
2022/08/28 06:19:03;;;;;;;4.22;2.88;;;30.40;99.90;;;;;;5030993;28;20444;-48
2022/08/28 06:21:29;;;;;;;5.25;2.78;;;30.40;99.90;;;;;;5030846;28;20044;-48
2022/08/28 06:23:55;;;;;;;3.08;2.45;;;30.30;99.90;;;;;;5030650;28;20022;-48
2022/08/28 06:26:21;;;;;;;3.17;2.40;;;30.30;99.90;;;;;;5030786;28;20429;-48
2022/08/28 06:28:47;;;;;;;3.75;2.30;;;30.30;99.90;;;;;;5031023;28;20022;-48
2022/08/28 06:31:13;;;;;;;3.17;2.60;;;30.30;99.90;;;;;;5034072;28;20029;-48
2022/08/28 06:33:39;;;;;;;2.42;2.20;;;30.30;99.90;;;;;;5034476;28;20031;-48
2022/08/28 06:36:06;;;;;;;3.65;2.35;;;30.30;99.90;;;;;;5034557;28;20029;-49
2022/08/28 06:38:32;;;;;;;5.70;2.20;;;30.30;99.90;;;;;;5034326;28;20021;-50
2022/08/28 06:40:58;;;;;;;3.03;2.45;;;30.40;99.90;;;;;;5034318;28;20412;-48
2022/08/28 06:43:26;;;;;;;2.58;2.20;;;30.40;99.90;;;;;;5034338;28;20366;-48
2022/08/28 06:45:54;;;;;;;3.22;2.30;;;30.40;99.90;;;;;;5034296;28;20584;-49
2022/08/28 06:48:23;;;;;;;2.85;2.55;;;30.30;99.90;;;;;;5034367;28;20030;-48
2022/08/28 06:50:54;;;;;;;3.38;2.40;;;30.40;99.90;;;;;;5034176;28;20033;-48
2022/08/28 06:53:23;;;;;;;3.17;2.50;;;30.40;99.90;;;;;;5034187;28;20083;-48
2022/08/28 06:55:56;;;;;;;2.58;2.30;;;30.40;99.90;;;;;;5034133;28;20078;-48
2022/08/28 06:58:22;;;;;;;2.58;2.08;;;30.40;99.90;;;;;;5033943;28;20029;-48
2022/08/28 07:00:49;;;;;;;2.60;2.20;;;30.50;99.90;;;;;;5033817;28;20111;-48
2022/08/28 07:03:15;;;;;;;3.97;2.60;;;30.50;99.90;;;;;;5034028;28;20018;-49
2022/08/28 07:05:41;;;;;;;2.25;1.88;;;30.50;99.90;;;;;;5033779;28;20033;-49
2022/08/28 07:08:07;;;;;;;2.50;2.00;;;30.50;99.90;;;;;;5033846;28;20079;-49
2022/08/28 07:10:33;;;;;;;3.97;2.63;;;30.50;99.90;;;;;;5033590;28;20378;-49
2022/08/28 07:12:59;;;;;;;3.08;2.22;;;30.50;99.90;;;;;;5033769;28;20054;-49
2022/08/28 07:15:25;;;;;;;2.50;2.00;;;30.50;99.90;;;;;;5033634;28;20037;-49
2022/08/28 07:17:51;;;;;;;3.47;2.50;;;30.50;99.90;;;;;;5034128;28;20485;-49
2022/08/28 07:20:17;;;;;;;3.88;2.65;;;30.50;99.90;;;;;;5033516;28;20045;-50
2022/08/28 07:22:43;;;;;;;3.47;2.10;;;30.60;99.90;;;;;;5032202;28;20152;-49
2022/08/28 07:25:09;;;;;;;4.60;2.83;;;30.60;99.90;;;;;;5033560;28;20036;-49
2022/08/28 07:27:37;;;;;;;2.30;2.10;;;30.50;99.90;;;;;;5033556;28;20032;-50
2022/08/28 07:30:05;;;;;;;3.60;2.50;;;30.60;99.90;;;;;;5033374;28;20543;-50
2022/08/28 07:32:31;;;;;;;2.63;2.30;;;30.60;99.90;;;;;;5033403;28;20053;-50
2022/08/28 07:34:58;;;;;;;2.75;2.22;;;30.60;99.90;;;;;;5033412;28;20462;-50
2022/08/28 07:37:25;;;;;;;2.85;2.33;;;30.60;99.90;;;;;;5033278;28;20045;-50
2022/08/28 07:39:51;;;;;;;3.35;2.63;;;30.60;99.90;;;;;;5033307;28;20021;-49
2022/08/28 07:45:01;;;;;;;3.58;2.70;;;30.60;99.90;;;;;;5033536;28;20064;-50
2022/08/28 07:47:30;;;;;;;5.28;2.78;;;30.60;99.90;;;;;;5033113;28;20032;-50
2022/08/28 07:49:59;;;;;;;4.13;3.20;;;30.60;99.90;;;;;;5033081;28;20022;-50
2022/08/28 07:52:26;;;;;;;3.88;2.25;;;30.60;99.90;;;;;;5033181;28;20017;-51
2022/08/28 07:54:52;;;;;;;3.92;2.95;;;30.70;99.90;;;;;;5033115;28;20021;-51
2022/08/28 07:57:20;;;;;;;3.50;2.60;;;30.70;99.90;;;;;;5032782;28;20037;-50
2022/08/28 07:59:46;;;;;;;4.13;2.42;;;30.70;99.90;;;;;;5032708;28;20498;-50
2022/08/28 08:02:12;;;;;;;5.65;3.25;;;30.70;99.90;;;;;;5032751;28;20107;-50
2022/08/28 08:04:39;;;;;;;4.30;3.00;;;30.70;99.90;;;;;;5032830;28;20022;-50
2022/08/28 08:07:05;;;;;;;3.72;2.95;;;30.70;99.90;;;;;;5032787;28;20049;-50
2022/08/28 08:09:36;;;;;;;4.55;2.78;;;30.70;99.90;;;;;;5032781;28;20089;-50
2022/08/28 08:12:02;;;;;;;6.25;3.00;;;30.70;99.90;;;;;;5032418;28;20028;-50
2022/08/28 08:14:27;;;;;;;4.45;3.13;;;30.70;99.90;;;;;;5032492;28;20033;-50
2022/08/28 08:16:53;;;;;;;3.63;2.78;;;30.70;99.90;;;;;;5032717;28;20017;-50
2022/08/28 08:19:19;;;;;;;3.97;3.08;;;30.70;99.90;;;;;;5032449;28;20025;-50
2022/08/28 08:21:47;;;;;;;4.18;3.05;;;30.70;99.90;;;;;;5032248;28;20033;-50
2022/08/28 08:24:19;;;;;;;4.22;3.28;;;30.70;99.90;;;;;;5032506;28;20029;-49
2022/08/28 08:26:49;;;;;;;3.35;2.67;;;30.70;99.90;;;;;;5032312;28;20448;-50
2022/08/28 08:29:15;;;;;;;3.85;3.22;;;30.80;99.90;;;;;;5032310;28;20017;-50
2022/08/28 08:31:41;;;;;;;4.15;3.03;;;30.80;99.90;;;;;;5032384;28;20557;-50
2022/08/28 08:34:08;;;;;;;3.30;2.97;;;30.70;99.90;;;;;;5032183;28;20048;-51
2022/08/28 08:36:36;;;;;;;3.88;3.38;;;30.70;99.90;;;;;;5032168;28;20423;-49
2022/08/28 08:39:04;;;;;;;3.28;2.53;;;30.80;99.90;;;;;;5031996;28;20559;-49
2022/08/28 08:41:54;;;;;;;3.53;2.90;;;30.80;99.90;;;;;;5032119;28;20077;-49
2022/08/28 08:44:44;;;;;;;3.78;3.03;;;30.80;99.90;;;;;;5032188;28;20557;-49
2022/08/28 08:47:27;;;;;;;2.95;2.65;;;30.80;99.90;;;;;;5031638;28;20029;-50
2022/08/28 08:50:23;;;;;;;4.70;3.10;;;30.80;99.90;;;;;;5031946;28;20022;-50
2022/08/28 08:53:01;;;;;;;4.17;2.83;;;30.80;99.90;;;;;;5029786;28;20947;-50
2022/08/28 08:55:31;;;;;;;5.57;3.00;;;30.80;99.90;;;;;;5031970;28;20101;-50
2022/08/28 08:58:12;;;;;;;3.40;3.10;;;30.90;99.90;;;;;;5031924;28;20029;-48
2022/08/28 09:00:58;;;;;;;4.78;3.38;;;30.90;99.90;;;;;;5031378;28;20108;-49
2022/08/28 09:03:34;;;;;;;4.47;3.15;;;30.80;99.90;;;;;;5031744;28;20025;-49
2022/08/28 09:06:03;;;;;;;4.40;3.00;;;30.90;99.90;;;;;;5031652;28;20056;-49
2022/08/28 09:08:47;;;;;;;3.20;2.83;;;30.90;99.90;;;;;;5031765;28;20045;-49
2022/08/28 09:11:42;;;;;;;3.95;3.33;;;30.90;99.90;;;;;;5031468;28;20779;-49
2022/08/28 09:14:18;;;;;;;4.00;3.30;;;30.80;99.90;;;;;;5027473;28;20033;-49
2022/08/28 09:16:45;;;;;;;3.50;2.75;;;30.90;99.90;;;;;;5031512;28;20021;-49
2022/08/28 09:19:16;;;;;;;4.50;3.67;;;30.90;99.90;;;;;;5031361;28;20056;-49
2022/08/28 09:21:45;;;;;;;3.85;3.42;;;30.90;99.90;;;;;;5031292;28;20060;-50
2022/08/28 09:24:21;;;;;;;4.68;3.55;;;30.90;99.90;;;;;;5031303;28;20044;-50
2022/08/28 09:26:56;;;;;;;4.18;3.50;;;30.90;99.90;;;;;;5031337;28;20126;-49
2022/08/28 09:29:37;;;;;;;3.80;3.35;;;30.90;99.90;;;;;;5031485;28;20351;-50
2022/08/28 09:32:15;;;;;;;4.55;3.80;;;30.90;99.90;;;;;;5013500;28;20025;-50
2022/08/28 09:34:57;;;;;;;5.22;3.65;;;30.90;99.90;;;;;;5031279;28;20021;-49
2022/08/28 09:37:26;;;;;;;4.20;3.50;;;30.90;99.90;;;;;;5031213;28;20061;-50
2022/08/28 09:40:24;;;;;;;4.93;3.95;;;31.00;99.90;;;;;;5031276;28;20117;-50
2022/08/28 09:43:26;;;;;;;4.07;3.47;;;31.00;99.90;;;;;;5031001;28;20045;-50
2022/08/28 09:45:57;;;;;;;4.80;3.65;;;30.90;99.90;;;;;;5031038;28;20061;-50
2022/08/28 09:48:30;;;;;;;4.15;3.30;;;30.90;99.90;;;;;;5031143;28;20083;-49
2022/08/28 09:51:06;;;;;;;4.50;4.10;;;31.00;99.90;;;;;;5030984;28;20367;-50
2022/08/28 09:53:41;;;;;;;4.22;3.83;;;31.00;99.90;;;;;;5031227;28;20370;-49
2022/08/28 09:56:16;;;;;;;5.75;3.95;;;31.00;99.90;;;;;;5030853;28;20078;-50
2022/08/28 09:58:45;;;;;;;4.68;3.60;;;31.00;99.90;;;;;;5031122;28;20017;-50
2022/08/28 10:01:37;;;;;;;4.18;3.78;;;31.00;99.90;;;;;;5030547;28;20590;-49
2022/08/28 10:04:23;;;;;;;4.15;3.40;;;31.00;99.90;;;;;;5031013;28;20643;-49
2022/08/28 10:07:15;;;;;;;5.18;4.20;;;31.00;99.90;;;;;;5034801;28;20095;-50
2022/08/28 10:10:00;;;;;;;4.25;3.85;;;31.00;99.90;;;;;;5031002;28;20124;-50
2022/08/28 10:12:40;;;;;;;5.00;4.13;;;31.00;99.90;;;;;;5035104;28;20041;-50
2022/08/28 10:15:21;;;;;;;4.63;4.13;;;31.10;99.90;;;;;;5035124;28;20032;-49
2022/08/28 10:18:16;;;;;;;5.45;4.50;;;31.10;99.90;;;;;;5016965;28;20021;-49
2022/08/28 10:21:13;;;;;;;4.72;4.28;;;31.10;99.90;;;;;;5034598;28;20381;-49
2022/08/28 10:23:57;;;;;;;4.90;4.07;;;31.10;99.90;;;;;;5034630;28;20030;-50
2022/08/28 10:26:45;;;;;;;4.20;3.80;;;31.10;99.90;;;;;;5034591;28;20025;-49
2022/08/28 10:29:42;;;;;;;5.47;4.28;;;31.10;99.90;;;;;;5034595;28;20478;-49
2022/08/28 10:32:07;;;;;;;;;;;31.10;99.90;;;;;;5034855;28;20025;-50
2022/08/28 10:34:33;;;;;;;5.00;4.50;;;31.10;99.90;;;;;;5034361;28;19905;-49
2022/08/28 10:37:13;;;;;;;5.72;4.32;;;31.20;99.90;;;;;;5034369;28;20374;-49
2022/08/28 10:39:52;;;;;;;6.20;4.50;;;31.20;99.90;;;;;;5034591;28;20032;-50
2022/08/28 10:42:35;;;;;;;5.20;4.70;;;31.20;99.90;;;;;;5034192;28;20076;-49
2022/08/28 10:45:12;;;;;;;5.30;4.80;;;31.20;99.90;;;;;;5034267;28;20087;-50
2022/08/28 10:47:43;;;;;;;5.60;4.45;;;31.20;99.90;;;;;;5034199;28;20086;-49
2022/08/28 10:50:24;;;;;;;5.88;4.65;;;31.20;99.90;;;;;;5034144;28;20060;-50
2022/08/28 10:53:05;;;;;;;6.38;5.00;;;31.20;99.90;;;;;;5034125;28;20021;-49
2022/08/28 10:55:42;;;;;;;5.78;4.80;;;31.30;99.90;;;;;;5034054;28;20029;-49
2022/08/28 10:58:10;;;;;;;5.22;4.72;;;31.30;99.90;;;;;;5033899;28;20021;-49
2022/08/28 11:00:38;;;;;;;5.47;4.53;;;31.30;99.90;;;;;;5033764;28;20493;-50
2022/08/28 11:03:11;;;;;;;5.43;4.78;;;31.30;99.90;;;;;;5034152;28;20033;-50
2022/08/28 11:06:02;;;;;;;5.78;4.90;;;31.30;99.90;;;;;;5034079;28;20018;-50
2022/08/28 11:08:32;;;;;;;5.70;4.82;;;31.30;99.90;;;;;;5033786;28;20500;-50
2022/08/28 11:11:00;;;;;;;7.22;5.18;;;31.30;99.90;;;;;;5033730;28;20026;-50
2022/08/28 11:13:58;;;;;;;5.10;4.57;;;31.40;99.90;;;;;;5033746;28;20064;-50
2022/08/28 11:16:27;;;;;;;5.28;4.75;;;31.40;99.90;;;;;;5032498;28;20468;-50
2022/08/28 11:19:04;;;;;;;6.22;4.88;;;31.40;99.90;;;;;;5033767;28;20072;-50
2022/08/28 11:21:55;;;;;;;4.97;4.47;;;31.40;99.90;;;;;;5033428;28;20033;-50
2022/08/28 11:24:42;;;;;;;5.40;4.40;;;31.50;99.90;;;;;;5033744;28;20176;-49
2022/08/28 11:27:17;;;;;;;6.22;5.03;;;31.40;99.90;;;;;;5033672;28;20033;-49
2022/08/28 11:30:05;;;;;;;5.65;4.45;;;31.50;99.90;;;;;;5033403;28;20028;-50
2022/08/28 11:32:30;;;;;;;6.20;4.90;;;31.50;99.90;;;;;;5033438;28;20014;-50
2022/08/28 11:35:03;;;;;;;5.60;4.53;;;31.50;99.90;;;;;;5033545;28;20060;-50
2022/08/28 11:37:40;;;;;;;6.35;5.10;;;31.50;99.90;;;;;;5033290;28;20156;-50
2022/08/28 11:40:16;;;;;;;6.32;4.38;;;31.60;99.90;;;;;;5033416;28;20040;-49
2022/08/28 11:42:47;;;;;;;6.72;5.22;;;31.50;99.90;;;;;;5033318;28;20057;-50
2022/08/28 11:45:42;;;;;;;6.95;5.90;;;31.60;99.90;;;;;;5033059;28;20025;-50
2022/08/28 11:48:29;;;;;;;7.53;5.22;;;31.60;99.90;;;;;;4997797;28;20037;-50
2022/08/28 11:51:17;;;;;;;5.55;4.93;;;31.60;99.90;;;;;;5032394;28;20125;-51
2022/08/28 11:54:07;;;;;;;6.22;5.38;;;31.60;99.90;;;;;;5033023;28;20036;-51
2022/08/28 11:57:07;;;;;;;5.97;4.97;;;31.60;99.90;;;;;;5032901;28;20026;-50
2022/08/28 11:59:51;;;;;;;8.07;6.40;;;31.60;99.90;;;;;;5032616;28;20029;-50
2022/08/28 12:02:38;;;;;;;6.65;5.75;;;31.70;99.90;;;;;;5032735;28;20132;-51
2022/08/28 12:05:07;;;;;;;6.40;5.72;;;31.60;99.90;;;;;;5032828;28;20021;-51
2022/08/28 12:07:35;;;;;;;6.78;6.07;;;31.70;99.90;;;;;;5032814;28;20096;-50
2022/08/28 12:10:22;;;;;;;7.45;6.65;;;31.70;99.90;;;;;;5032670;28;20037;-50
2022/08/28 12:13:07;;;;;;;9.40;7.22;;;31.70;99.90;;;;;;5032567;28;20151;-51
2022/08/28 12:15:33;;;;;;;7.53;6.50;;;31.70;99.90;;;;;;5032461;28;20036;-50
2022/08/28 12:18:34;;;;;;;7.25;6.50;;;31.80;99.90;;;;;;5032549;28;20022;-50
2022/08/28 12:21:03;;;;;;;8.88;6.80;;;31.80;99.90;;;;;;5032422;28;20029;-50
2022/08/28 12:23:41;;;;;;;7.63;6.82;;;31.80;99.90;;;;;;5032510;28;20048;-51
2022/08/28 12:26:25;;;;;;;8.82;6.72;;;31.80;99.90;;;;;;5032552;28;20387;-50
2022/08/28 12:29:14;;;;;;;8.48;7.28;;;31.80;99.90;;;;;;5032121;28;20022;-51
2022/08/28 12:34:45;;;;;;;7.65;3.65;;;31.90;99.90;;;;;;5031782;28;20032;-50
2022/08/28 12:37:35;;;;;;;5.10;2.42;;;31.90;99.90;;;;;;5032183;28;20029;-50
2022/08/28 12:40:18;;;;;;;5.10;2.40;;;31.90;99.90;;;;;;5025054;28;20022;-50
2022/08/28 12:43:00;;;;;;;6.28;2.55;;;31.90;99.90;;;;;;5018782;28;20485;-49
2022/08/28 12:45:39;;;;;;;8.23;4.85;;;31.90;99.90;;;;;;5031472;28;20075;-51
2022/08/28 12:48:14;;;;;;;10.25;5.70;;;31.90;99.90;;;;;;5031703;28;20035;-50
2022/08/28 12:50:40;;;;;;;6.60;3.78;;;31.90;99.90;;;;;;5029214;28;20034;-50
2022/08/28 12:53:15;;;;;;;16.60;11.18;;;32.00;99.90;;;;;;5014168;28;20075;-50
2022/08/28 12:55:42;;;;;;;12.02;8.10;;;32.00;99.90;;;;;;5031883;28;20034;-51
2022/08/28 12:58:27;;;;;;;15.10;6.03;;;32.00;99.90;;;;;;5031712;28;20090;-51
2022/08/28 13:00:57;;;;;;;8.55;4.32;;;32.00;99.90;;;;;;5029241;28;20045;-49
2022/08/28 13:03:23;;;;;;;9.52;3.78;;;32.00;99.90;;;;;;5016854;28;20511;-50
2022/08/28 13:06:03;;;;;;;9.73;3.28;;;32.00;99.90;;;;;;5025093;28;20026;-50
2022/08/28 13:08:30;;;;;;;10.38;4.18;;;32.00;99.90;;;;;;5031545;28;20064;-51
2022/08/28 13:10:57;;;;;;;11.25;4.15;;;32.00;99.90;;;;;;5030973;28;20025;-49
2022/08/28 13:13:37;;;;;;;12.80;4.68;;;32.00;99.90;;;;;;5031071;28;20362;-49
2022/08/28 13:16:09;;;;;;;23.50;4.13;;;32.00;99.90;;;;;;5031184;28;20017;-50